Xl Ranch Indian Reservation, California
Current Conditions -  °F | °C
As of 7:55 AM on Thursday 23 Oct 2014 (Local Time) from KAAT Reporting Station
Overcast Overcast  
Wind Chill: 42°   Ceiling: 6500
Heat Index: 48°   Visibility: 10mi
Dew Point: 43°   Wind: 14mph
Humidity: 83%   Direction: 190°S
Pressure: 30.07"   Gusts: NA
Location:  41.4836°N, 120.55°W
Report Text: KAAT 231455Z AUTO 19012KT 10SM BKN065 OVC110 09/06 A3007 RMK AO2 SLP167 60001 T00890061 55004
Loading
Personal Weather Stations






























Interactive Weather Map
Tropical Storm Tracking
New forecast layout! Learn more

10-Day Weather Forecast

Advertisements
Track Severe Weather on mobile